sensor_id;sensor_type;location;lat;lon;timestamp;temperature;humidity
21115;DHT22;10715;48.546;9.896;2023-04-03T00:01:28;2.10;99.90
21115;DHT22;10715;48.546;9.896;2023-04-03T00:03:54;2.10;99.90
21115;DHT22;10715;48.546;9.896;2023-04-03T00:06:21;2.00;99.90
21115;DHT22;10715;48.546;9.896;2023-04-03T00:08:47;2.00;99.90
21115;DHT22;10715;48.546;9.896;2023-04-03T00:11:13;2.00;99.90
21115;DHT22;10715;48.546;9.896;2023-04-03T00:13:39;2.00;99.90
21115;DHT22;10715;48.546;9.896;2023-04-03T00:16:06;2.00;99.90
21115;DHT22;10715;48.546;9.896;2023-04-03T00:18:32;2.00;99.90
21115;DHT22;10715;48.546;9.896;2023-04-03T00:20:58;1.90;99.90
21115;DHT22;10715;48.546;9.896;2023-04-03T00:23:27;1.90;99.90
21115;DHT22;10715;48.546;9.896;2023-04-03T00:25:59;1.90;99.90
21115;DHT22;10715;48.546;9.896;2023-04-03T00:28:24;1.90;99.90
21115;DHT22;10715;48.546;9.896;2023-04-03T00:30:51;1.90;99.90
21115;DHT22;10715;48.546;9.896;2023-04-03T00:33:17;1.90;99.90
21115;DHT22;10715;48.546;9.896;2023-04-03T00:35:45;1.90;99.90
21115;DHT22;10715;48.546;9.896;2023-04-03T00:38:15;2.00;99.90
21115;DHT22;10715;48.546;9.896;2023-04-03T00:40:45;1.90;99.90
21115;DHT22;10715;48.546;9.896;2023-04-03T00:43:30;1.90;99.90
21115;DHT22;10715;48.546;9.896;2023-04-03T00:45:59;1.90;99.90
21115;DHT22;10715;48.546;9.896;2023-04-03T00:48:32;1.80;99.90
21115;DHT22;10715;48.546;9.896;2023-04-03T00:51:00;1.70;99.90
21115;DHT22;10715;48.546;9.896;2023-04-03T00:53:33;1.70;99.90
21115;DHT22;10715;48.546;9.896;2023-04-03T00:56:06;1.60;99.90
21115;DHT22;10715;48.546;9.896;2023-04-03T00:58:54;1.50;99.90
21115;DHT22;10715;48.546;9.896;2023-04-03T01:01:25;1.50;99.90
21115;DHT22;10715;48.546;9.896;2023-04-03T01:03:51;1.50;99.90
21115;DHT22;10715;48.546;9.896;2023-04-03T01:06:29;1.50;99.90
21115;DHT22;10715;48.546;9.896;2023-04-03T01:08:59;1.50;99.90
21115;DHT22;10715;48.546;9.896;2023-04-03T01:11:25;1.50;99.90
21115;DHT22;10715;48.546;9.896;2023-04-03T01:13:52;1.50;99.90
21115;DHT22;10715;48.546;9.896;2023-04-03T01:16:18;1.50;99.90
21115;DHT22;10715;48.546;9.896;2023-04-03T01:18:53;1.50;99.90
21115;DHT22;10715;48.546;9.896;2023-04-03T01:24:32;1.40;99.90
21115;DHT22;10715;48.546;9.896;2023-04-03T01:27:00;1.50;99.90
21115;DHT22;10715;48.546;9.896;2023-04-03T01:29:26;1.50;99.90
21115;DHT22;10715;48.546;9.896;2023-04-03T01:31:55;1.50;99.90
21115;DHT22;10715;48.546;9.896;2023-04-03T01:34:22;1.50;99.90
21115;DHT22;10715;48.546;9.896;2023-04-03T01:36:48;1.50;99.90
21115;DHT22;10715;48.546;9.896;2023-04-03T01:39:14;1.50;99.90
21115;DHT22;10715;48.546;9.896;2023-04-03T01:41:39;1.50;99.90
21115;DHT22;10715;48.546;9.896;2023-04-03T01:44:05;1.50;99.90
21115;DHT22;10715;48.546;9.896;2023-04-03T01:46:31;1.50;99.90
21115;DHT22;10715;48.546;9.896;2023-04-03T01:48:57;1.40;99.90
21115;DHT22;10715;48.546;9.896;2023-04-03T01:51:23;1.40;99.90
21115;DHT22;10715;48.546;9.896;2023-04-03T01:53:48;1.40;99.90
21115;DHT22;10715;48.546;9.896;2023-04-03T01:56:14;1.40;99.90
21115;DHT22;10715;48.546;9.896;2023-04-03T01:58:40;1.40;99.90
21115;DHT22;10715;48.546;9.896;2023-04-03T02:01:06;1.40;99.90
21115;DHT22;10715;48.546;9.896;2023-04-03T02:03:32;1.40;99.90
21115;DHT22;10715;48.546;9.896;2023-04-03T02:05:58;1.40;99.90
21115;DHT22;10715;48.546;9.896;2023-04-03T02:08:24;1.50;99.90
21115;DHT22;10715;48.546;9.896;2023-04-03T02:10:50;1.40;99.90
21115;DHT22;10715;48.546;9.896;2023-04-03T02:13:17;1.50;99.90
21115;DHT22;10715;48.546;9.896;2023-04-03T02:15:43;1.50;99.90
21115;DHT22;10715;48.546;9.896;2023-04-03T02:18:08;1.40;99.90
21115;DHT22;10715;48.546;9.896;2023-04-03T02:20:34;1.40;99.90
21115;DHT22;10715;48.546;9.896;2023-04-03T02:23:00;1.40;99.90
21115;DHT22;10715;48.546;9.896;2023-04-03T02:25:26;1.50;99.90
21115;DHT22;10715;48.546;9.896;2023-04-03T02:27:52;1.40;99.90
21115;DHT22;10715;48.546;9.896;2023-04-03T02:30:18;1.40;99.90
21115;DHT22;10715;48.546;9.896;2023-04-03T02:32:44;1.40;99.90
21115;DHT22;10715;48.546;9.896;2023-04-03T02:35:11;1.40;99.90
21115;DHT22;10715;48.546;9.896;2023-04-03T02:37:37;1.40;99.90
21115;DHT22;10715;48.546;9.896;2023-04-03T02:40:04;1.40;99.90
21115;DHT22;10715;48.546;9.896;2023-04-03T02:42:30;1.40;99.90
21115;DHT22;10715;48.546;9.896;2023-04-03T02:44:55;1.30;99.90
21115;DHT22;10715;48.546;9.896;2023-04-03T02:47:21;1.30;99.90
21115;DHT22;10715;48.546;9.896;2023-04-03T02:49:47;1.30;99.90
21115;DHT22;10715;48.546;9.896;2023-04-03T02:52:14;1.30;99.90
21115;DHT22;10715;48.546;9.896;2023-04-03T02:54:40;1.30;99.90
21115;DHT22;10715;48.546;9.896;2023-04-03T02:57:06;1.30;99.90
21115;DHT22;10715;48.546;9.896;2023-04-03T02:59:35;1.30;99.90
21115;DHT22;10715;48.546;9.896;2023-04-03T03:02:01;1.20;99.90
21115;DHT22;10715;48.546;9.896;2023-04-03T03:04:26;1.20;99.90
21115;DHT22;10715;48.546;9.896;2023-04-03T03:06:52;1.20;99.90
21115;DHT22;10715;48.546;9.896;2023-04-03T03:09:18;1.20;99.90
21115;DHT22;10715;48.546;9.896;2023-04-03T03:11:44;1.20;99.90
21115;DHT22;10715;48.546;9.896;2023-04-03T03:14:10;1.20;99.90
21115;DHT22;10715;48.546;9.896;2023-04-03T03:16:36;1.20;99.90
21115;DHT22;10715;48.546;9.896;2023-04-03T03:19:02;1.20;99.90
21115;DHT22;10715;48.546;9.896;2023-04-03T03:21:27;1.20;99.90
21115;DHT22;10715;48.546;9.896;2023-04-03T03:23:53;1.10;99.90
21115;DHT22;10715;48.546;9.896;2023-04-03T03:26:19;1.10;99.90
21115;DHT22;10715;48.546;9.896;2023-04-03T03:28:44;1.10;99.90
21115;DHT22;10715;48.546;9.896;2023-04-03T03:31:11;1.10;99.90
21115;DHT22;10715;48.546;9.896;2023-04-03T03:33:37;1.10;99.90
21115;DHT22;10715;48.546;9.896;2023-04-03T03:36:03;1.10;99.90
21115;DHT22;10715;48.546;9.896;2023-04-03T03:38:29;1.00;99.90
21115;DHT22;10715;48.546;9.896;2023-04-03T03:40:55;1.00;99.90
21115;DHT22;10715;48.546;9.896;2023-04-03T03:43:21;1.00;99.90
21115;DHT22;10715;48.546;9.896;2023-04-03T03:45:50;1.00;99.90
21115;DHT22;10715;48.546;9.896;2023-04-03T03:48:17;1.00;99.90
21115;DHT22;10715;48.546;9.896;2023-04-03T03:50:43;1.00;99.90
21115;DHT22;10715;48.546;9.896;2023-04-03T03:53:08;0.90;99.90
21115;DHT22;10715;48.546;9.896;2023-04-03T03:55:35;0.90;99.90
21115;DHT22;10715;48.546;9.896;2023-04-03T03:58:00;0.90;99.90
21115;DHT22;10715;48.546;9.896;2023-04-03T04:00:27;0.90;99.90
21115;DHT22;10715;48.546;9.896;2023-04-03T04:02:53;0.90;99.90
21115;DHT22;10715;48.546;9.896;2023-04-03T04:05:19;0.90;99.90
21115;DHT22;10715;48.546;9.896;2023-04-03T04:07:45;0.90;99.90
21115;DHT22;10715;48.546;9.896;2023-04-03T04:10:10;0.90;99.90
21115;DHT22;10715;48.546;9.896;2023-04-03T04:12:36;0.90;99.90
21115;DHT22;10715;48.546;9.896;2023-04-03T04:15:03;0.90;99.90
21115;DHT22;10715;48.546;9.896;2023-04-03T04:17:28;0.90;99.90
21115;DHT22;10715;48.546;9.896;2023-04-03T04:19:54;0.90;99.90
21115;DHT22;10715;48.546;9.896;2023-04-03T04:22:20;0.90;99.90
21115;DHT22;10715;48.546;9.896;2023-04-03T04:24:46;0.90;99.90
21115;DHT22;10715;48.546;9.896;2023-04-03T04:27:11;0.90;99.90
21115;DHT22;10715;48.546;9.896;2023-04-03T04:29:37;0.90;99.90
21115;DHT22;10715;48.546;9.896;2023-04-03T04:32:03;0.90;99.90
21115;DHT22;10715;48.546;9.896;2023-04-03T04:34:29;0.90;99.90
21115;DHT22;10715;48.546;9.896;2023-04-03T04:36:56;0.90;99.90
21115;DHT22;10715;48.546;9.896;2023-04-03T04:39:22;0.90;99.90
21115;DHT22;10715;48.546;9.896;2023-04-03T04:41:47;0.90;99.90
21115;DHT22;10715;48.546;9.896;2023-04-03T04:44:13;0.90;99.90
21115;DHT22;10715;48.546;9.896;2023-04-03T04:46:39;0.90;99.90
21115;DHT22;10715;48.546;9.896;2023-04-03T04:49:04;1.00;99.90
21115;DHT22;10715;48.546;9.896;2023-04-03T04:51:31;1.00;99.90
21115;DHT22;10715;48.546;9.896;2023-04-03T04:53:56;1.00;99.90
21115;DHT22;10715;48.546;9.896;2023-04-03T04:56:22;1.00;99.90
21115;DHT22;10715;48.546;9.896;2023-04-03T04:58:48;1.00;99.90
21115;DHT22;10715;48.546;9.896;2023-04-03T05:01:14;1.00;99.90
21115;DHT22;10715;48.546;9.896;2023-04-03T05:03:39;0.90;99.90
21115;DHT22;10715;48.546;9.896;2023-04-03T05:06:06;0.90;99.90
21115;DHT22;10715;48.546;9.896;2023-04-03T05:08:32;0.90;99.90
21115;DHT22;10715;48.546;9.896;2023-04-03T05:10:58;0.90;99.90
21115;DHT22;10715;48.546;9.896;2023-04-03T05:13:23;0.90;99.90
21115;DHT22;10715;48.546;9.896;2023-04-03T05:15:49;0.90;99.90
21115;DHT22;10715;48.546;9.896;2023-04-03T05:18:15;0.90;99.90
21115;DHT22;10715;48.546;9.896;2023-04-03T05:20:41;0.90;99.90
21115;DHT22;10715;48.546;9.896;2023-04-03T05:23:09;0.90;99.90
21115;DHT22;10715;48.546;9.896;2023-04-03T05:25:37;0.90;99.90
21115;DHT22;10715;48.546;9.896;2023-04-03T05:28:03;0.90;99.90
21115;DHT22;10715;48.546;9.896;2023-04-03T05:30:29;0.90;99.90
21115;DHT22;10715;48.546;9.896;2023-04-03T05:32:55;0.90;99.90
21115;DHT22;10715;48.546;9.896;2023-04-03T05:35:21;0.90;99.90
21115;DHT22;10715;48.546;9.896;2023-04-03T05:37:46;0.90;99.90
21115;DHT22;10715;48.546;9.896;2023-04-03T05:40:13;0.90;99.90
21115;DHT22;10715;48.546;9.896;2023-04-03T05:42:38;0.90;99.90
21115;DHT22;10715;48.546;9.896;2023-04-03T05:45:04;0.90;99.90
21115;DHT22;10715;48.546;9.896;2023-04-03T05:47:30;0.90;99.90
21115;DHT22;10715;48.546;9.896;2023-04-03T05:49:56;0.90;99.90
21115;DHT22;10715;48.546;9.896;2023-04-03T05:52:26;0.90;99.90
21115;DHT22;10715;48.546;9.896;2023-04-03T05:54:52;1.00;99.90
21115;DHT22;10715;48.546;9.896;2023-04-03T05:57:18;1.00;99.90
21115;DHT22;10715;48.546;9.896;2023-04-03T05:59:45;1.00;99.90
21115;DHT22;10715;48.546;9.896;2023-04-03T06:02:13;1.00;99.90
21115;DHT22;10715;48.546;9.896;2023-04-03T06:04:39;1.00;99.90
21115;DHT22;10715;48.546;9.896;2023-04-03T06:07:05;1.00;99.90
21115;DHT22;10715;48.546;9.896;2023-04-03T06:09:32;1.00;99.90
21115;DHT22;10715;48.546;9.896;2023-04-03T06:11:58;1.00;99.90
21115;DHT22;10715;48.546;9.896;2023-04-03T06:14:25;1.00;99.90
21115;DHT22;10715;48.546;9.896;2023-04-03T06:16:51;1.00;99.90
21115;DHT22;10715;48.546;9.896;2023-04-03T06:19:18;1.00;99.90
21115;DHT22;10715;48.546;9.896;2023-04-03T06:21:44;1.00;99.90
21115;DHT22;10715;48.546;9.896;2023-04-03T06:24:12;1.00;99.90
21115;DHT22;10715;48.546;9.896;2023-04-03T06:26:39;1.10;99.90
21115;DHT22;10715;48.546;9.896;2023-04-03T06:29:04;1.10;99.90
21115;DHT22;10715;48.546;9.896;2023-04-03T06:31:30;1.10;99.90
21115;DHT22;10715;48.546;9.896;2023-04-03T06:33:56;1.10;99.90
21115;DHT22;10715;48.546;9.896;2023-04-03T06:36:22;1.10;99.90
21115;DHT22;10715;48.546;9.896;2023-04-03T06:38:48;1.20;99.90
21115;DHT22;10715;48.546;9.896;2023-04-03T06:41:14;1.20;99.90
21115;DHT22;10715;48.546;9.896;2023-04-03T06:43:42;1.20;99.90
21115;DHT22;10715;48.546;9.896;2023-04-03T06:46:16;1.20;99.90
21115;DHT22;10715;48.546;9.896;2023-04-03T06:48:42;1.20;99.90
21115;DHT22;10715;48.546;9.896;2023-04-03T06:51:21;1.20;99.90
21115;DHT22;10715;48.546;9.896;2023-04-03T06:53:48;1.30;99.90
21115;DHT22;10715;48.546;9.896;2023-04-03T06:56:15;1.30;99.90
21115;DHT22;10715;48.546;9.896;2023-04-03T06:58:41;1.30;99.90
21115;DHT22;10715;48.546;9.896;2023-04-03T07:01:08;1.30;99.90
21115;DHT22;10715;48.546;9.896;2023-04-03T07:03:36;1.30;99.90
21115;DHT22;10715;48.546;9.896;2023-04-03T07:06:03;1.30;99.90
21115;DHT22;10715;48.546;9.896;2023-04-03T07:08:29;1.30;99.90
21115;DHT22;10715;48.546;9.896;2023-04-03T07:10:55;1.30;99.90
21115;DHT22;10715;48.546;9.896;2023-04-03T07:13:21;1.30;99.90
21115;DHT22;10715;48.546;9.896;2023-04-03T07:15:47;1.40;99.90
21115;DHT22;10715;48.546;9.896;2023-04-03T07:18:13;1.40;99.90
21115;DHT22;10715;48.546;9.896;2023-04-03T07:20:39;1.40;99.90
21115;DHT22;10715;48.546;9.896;2023-04-03T07:23:05;1.50;99.90
21115;DHT22;10715;48.546;9.896;2023-04-03T07:25:31;1.50;99.90
21115;DHT22;10715;48.546;9.896;2023-04-03T07:27:57;1.60;99.90
21115;DHT22;10715;48.546;9.896;2023-04-03T07:30:23;1.70;99.90
21115;DHT22;10715;48.546;9.896;2023-04-03T07:32:49;1.70;99.90
21115;DHT22;10715;48.546;9.896;2023-04-03T07:35:15;1.80;99.90
21115;DHT22;10715;48.546;9.896;2023-04-03T07:37:42;1.80;99.90
21115;DHT22;10715;48.546;9.896;2023-04-03T07:40:08;1.90;99.90
21115;DHT22;10715;48.546;9.896;2023-04-03T07:42:34;1.90;99.90
21115;DHT22;10715;48.546;9.896;2023-04-03T07:45:02;1.90;99.90
21115;DHT22;10715;48.546;9.896;2023-04-03T07:47:29;2.00;99.90
21115;DHT22;10715;48.546;9.896;2023-04-03T07:49:54;2.00;99.90
21115;DHT22;10715;48.546;9.896;2023-04-03T07:52:22;2.10;99.90
21115;DHT22;10715;48.546;9.896;2023-04-03T07:54:48;2.10;99.90
21115;DHT22;10715;48.546;9.896;2023-04-03T07:57:14;2.20;99.90
21115;DHT22;10715;48.546;9.896;2023-04-03T07:59:40;2.20;99.90
21115;DHT22;10715;48.546;9.896;2023-04-03T08:02:12;2.20;99.90
21115;DHT22;10715;48.546;9.896;2023-04-03T08:04:38;2.20;99.90
21115;DHT22;10715;48.546;9.896;2023-04-03T08:07:03;2.30;99.90
21115;DHT22;10715;48.546;9.896;2023-04-03T08:09:30;2.40;99.90
21115;DHT22;10715;48.546;9.896;2023-04-03T08:11:57;2.40;99.90
21115;DHT22;10715;48.546;9.896;2023-04-03T08:14:23;2.50;99.90
21115;DHT22;10715;48.546;9.896;2023-04-03T08:16:48;2.50;99.90
21115;DHT22;10715;48.546;9.896;2023-04-03T08:19:15;2.60;99.90
21115;DHT22;10715;48.546;9.896;2023-04-03T08:21:43;2.60;99.90
21115;DHT22;10715;48.546;9.896;2023-04-03T08:24:09;2.60;99.90
21115;DHT22;10715;48.546;9.896;2023-04-03T08:26:35;2.70;99.90
21115;DHT22;10715;48.546;9.896;2023-04-03T08:29:01;2.70;99.90
21115;DHT22;10715;48.546;9.896;2023-04-03T08:31:27;2.80;99.90
21115;DHT22;10715;48.546;9.896;2023-04-03T08:33:54;2.80;99.90
21115;DHT22;10715;48.546;9.896;2023-04-03T08:36:28;2.80;99.90
21115;DHT22;10715;48.546;9.896;2023-04-03T08:38:56;2.80;99.90
21115;DHT22;10715;48.546;9.896;2023-04-03T08:41:42;2.80;99.90
21115;DHT22;10715;48.546;9.896;2023-04-03T08:46:59;2.80;99.90
21115;DHT22;10715;48.546;9.896;2023-04-03T08:50:00;2.90;99.90
21115;DHT22;10715;48.546;9.896;2023-04-03T08:52:44;2.80;99.90
21115;DHT22;10715;48.546;9.896;2023-04-03T08:57:51;2.80;99.90
21115;DHT22;10715;48.546;9.896;2023-04-03T09:00:25;2.80;99.90
21115;DHT22;10715;48.546;9.896;2023-04-03T09:02:55;2.90;99.90
21115;DHT22;10715;48.546;9.896;2023-04-03T09:08:00;2.90;99.90
21115;DHT22;10715;48.546;9.896;2023-04-03T09:10:32;3.00;99.90
21115;DHT22;10715;48.546;9.896;2023-04-03T09:13:21;3.00;99.90
21115;DHT22;10715;48.546;9.896;2023-04-03T09:15:50;3.00;99.90
21115;DHT22;10715;48.546;9.896;2023-04-03T09:18:40;3.00;99.90
21115;DHT22;10715;48.546;9.896;2023-04-03T09:21:32;3.00;99.90
21115;DHT22;10715;48.546;9.896;2023-04-03T09:24:01;3.10;99.90
21115;DHT22;10715;48.546;9.896;2023-04-03T09:26:44;3.10;99.90
21115;DHT22;10715;48.546;9.896;2023-04-03T09:29:17;3.10;99.90
21115;DHT22;10715;48.546;9.896;2023-04-03T09:31:44;3.20;99.90
21115;DHT22;10715;48.546;9.896;2023-04-03T09:34:22;3.20;99.90
21115;DHT22;10715;48.546;9.896;2023-04-03T09:36:51;3.20;99.90
21115;DHT22;10715;48.546;9.896;2023-04-03T09:39:20;3.20;99.90
21115;DHT22;10715;48.546;9.896;2023-04-03T09:42:16;3.20;99.90
21115;DHT22;10715;48.546;9.896;2023-04-03T09:44:56;3.20;99.90
21115;DHT22;10715;48.546;9.896;2023-04-03T09:47:30;3.20;99.90
21115;DHT22;10715;48.546;9.896;2023-04-03T09:50:28;3.20;99.90
21115;DHT22;10715;48.546;9.896;2023-04-03T09:52:54;3.20;99.90
21115;DHT22;10715;48.546;9.896;2023-04-03T09:55:25;3.20;99.90
21115;DHT22;10715;48.546;9.896;2023-04-03T09:58:00;3.30;99.90
21115;DHT22;10715;48.546;9.896;2023-04-03T10:00:30;3.30;99.90
21115;DHT22;10715;48.546;9.896;2023-04-03T10:02:58;3.30;99.90
21115;DHT22;10715;48.546;9.896;2023-04-03T10:10:42;3.20;99.90
21115;DHT22;10715;48.546;9.896;2023-04-03T10:13:16;3.20;99.90
21115;DHT22;10715;48.546;9.896;2023-04-03T10:18:40;3.30;99.90
21115;DHT22;10715;48.546;9.896;2023-04-03T10:26:54;3.30;99.90
21115;DHT22;10715;48.546;9.896;2023-04-03T10:34:46;3.30;99.90
21115;DHT22;10715;48.546;9.896;2023-04-03T10:37:34;3.30;99.90
21115;DHT22;10715;48.546;9.896;2023-04-03T10:40:28;3.30;99.90
21115;DHT22;10715;48.546;9.896;2023-04-03T10:46:06;3.20;99.90
21115;DHT22;10715;48.546;9.896;2023-04-03T10:49:40;3.20;99.90
21115;DHT22;10715;48.546;9.896;2023-04-03T10:51:52;3.10;99.90
21115;DHT22;10715;48.546;9.896;2023-04-03T10:54:25;3.10;99.90
21115;DHT22;10715;48.546;9.896;2023-04-03T10:57:03;3.20;99.90
21115;DHT22;10715;48.546;9.896;2023-04-03T11:02:26;3.20;99.90
21115;DHT22;10715;48.546;9.896;2023-04-03T11:05:02;3.20;99.90
21115;DHT22;10715;48.546;9.896;2023-04-03T11:07:38;3.20;99.90
21115;DHT22;10715;48.546;9.896;2023-04-03T11:13:12;3.10;99.90
21115;DHT22;10715;48.546;9.896;2023-04-03T11:15:38;3.10;99.90
21115;DHT22;10715;48.546;9.896;2023-04-03T11:18:12;3.10;99.90
21115;DHT22;10715;48.546;9.896;2023-04-03T11:20:42;3.10;99.90
21115;DHT22;10715;48.546;9.896;2023-04-03T11:23:25;3.00;99.90
21115;DHT22;10715;48.546;9.896;2023-04-03T11:25:59;3.00;99.90
21115;DHT22;10715;48.546;9.896;2023-04-03T11:28:26;3.00;99.90
21115;DHT22;10715;48.546;9.896;2023-04-03T11:31:08;3.10;99.90
21115;DHT22;10715;48.546;9.896;2023-04-03T11:33:49;3.10;99.90
21115;DHT22;10715;48.546;9.896;2023-04-03T11:36:29;3.10;99.90
21115;DHT22;10715;48.546;9.896;2023-04-03T11:39:00;3.10;99.90
21115;DHT22;10715;48.546;9.896;2023-04-03T11:41:31;3.00;99.90
21115;DHT22;10715;48.546;9.896;2023-04-03T11:44:05;3.00;99.90
21115;DHT22;10715;48.546;9.896;2023-04-03T11:46:54;3.00;99.90
21115;DHT22;10715;48.546;9.896;2023-04-03T11:49:59;3.00;99.90
21115;DHT22;10715;48.546;9.896;2023-04-03T12:31:58;2.90;99.90
21115;DHT22;10715;48.546;9.896;2023-04-03T12:45:19;3.10;99.90
21115;DHT22;10715;48.546;9.896;2023-04-03T12:47:49;3.10;99.90
21115;DHT22;10715;48.546;9.896;2023-04-03T12:50:27;3.10;99.90
21115;DHT22;10715;48.546;9.896;2023-04-03T12:53:21;3.10;99.90
21115;DHT22;10715;48.546;9.896;2023-04-03T12:55:56;3.20;99.90
21115;DHT22;10715;48.546;9.896;2023-04-03T12:58:25;3.30;99.90
21115;DHT22;10715;48.546;9.896;2023-04-03T13:01:10;3.40;99.90
21115;DHT22;10715;48.546;9.896;2023-04-03T13:03:39;3.40;99.90
21115;DHT22;10715;48.546;9.896;2023-04-03T13:06:05;3.50;99.90
21115;DHT22;10715;48.546;9.896;2023-04-03T13:08:31;3.60;99.90
21115;DHT22;10715;48.546;9.896;2023-04-03T13:11:10;3.60;99.90
21115;DHT22;10715;48.546;9.896;2023-04-03T13:13:37;3.70;99.90
21115;DHT22;10715;48.546;9.896;2023-04-03T13:16:11;3.70;99.90
21115;DHT22;10715;48.546;9.896;2023-04-03T13:18:37;3.80;99.90
21115;DHT22;10715;48.546;9.896;2023-04-03T13:21:13;3.80;99.90
21115;DHT22;10715;48.546;9.896;2023-04-03T13:23:43;3.90;99.90
21115;DHT22;10715;48.546;9.896;2023-04-03T13:26:10;3.90;99.90
21115;DHT22;10715;48.546;9.896;2023-04-03T13:28:38;3.90;99.90
21115;DHT22;10715;48.546;9.896;2023-04-03T13:33:35;3.90;99.90
21115;DHT22;10715;48.546;9.896;2023-04-03T13:36:24;3.90;99.90
21115;DHT22;10715;48.546;9.896;2023-04-03T13:39:03;3.90;99.90
21115;DHT22;10715;48.546;9.896;2023-04-03T13:41:36;3.80;99.90
21115;DHT22;10715;48.546;9.896;2023-04-03T13:46:44;3.80;99.90
21115;DHT22;10715;48.546;9.896;2023-04-03T13:51:56;3.90;99.90
21115;DHT22;10715;48.546;9.896;2023-04-03T13:54:24;3.90;99.90
21115;DHT22;10715;48.546;9.896;2023-04-03T13:56:56;3.90;99.90
21115;DHT22;10715;48.546;9.896;2023-04-03T13:59:33;4.00;99.90
21115;DHT22;10715;48.546;9.896;2023-04-03T14:04:32;4.00;99.90
21115;DHT22;10715;48.546;9.896;2023-04-03T14:06:59;4.00;99.90
21115;DHT22;10715;48.546;9.896;2023-04-03T14:09:27;4.00;99.90
21115;DHT22;10715;48.546;9.896;2023-04-03T14:12:00;4.00;99.90
21115;DHT22;10715;48.546;9.896;2023-04-03T14:14:34;4.00;99.90
21115;DHT22;10715;48.546;9.896;2023-04-03T14:17:03;4.00;99.90
21115;DHT22;10715;48.546;9.896;2023-04-03T14:19:33;4.00;99.90
21115;DHT22;10715;48.546;9.896;2023-04-03T14:22:03;4.00;99.90
21115;DHT22;10715;48.546;9.896;2023-04-03T14:24:31;4.00;99.90
21115;DHT22;10715;48.546;9.896;2023-04-03T14:26:57;4.00;99.90
21115;DHT22;10715;48.546;9.896;2023-04-03T14:29:24;4.00;99.90
21115;DHT22;10715;48.546;9.896;2023-04-03T14:31:51;4.00;99.90
21115;DHT22;10715;48.546;9.896;2023-04-03T14:34:16;4.00;99.90
21115;DHT22;10715;48.546;9.896;2023-04-03T14:36:43;4.00;99.90
21115;DHT22;10715;48.546;9.896;2023-04-03T14:39:17;4.00;99.90
21115;DHT22;10715;48.546;9.896;2023-04-03T14:41:43;4.00;99.90
21115;DHT22;10715;48.546;9.896;2023-04-03T14:44:09;4.00;99.90
21115;DHT22;10715;48.546;9.896;2023-04-03T14:46:38;4.00;99.90
21115;DHT22;10715;48.546;9.896;2023-04-03T14:49:13;4.00;99.90
21115;DHT22;10715;48.546;9.896;2023-04-03T14:51:39;4.00;99.90
21115;DHT22;10715;48.546;9.896;2023-04-03T14:54:06;4.00;99.90
21115;DHT22;10715;48.546;9.896;2023-04-03T14:56:37;4.00;99.90
21115;DHT22;10715;48.546;9.896;2023-04-03T14:59:09;4.00;99.90
21115;DHT22;10715;48.546;9.896;2023-04-03T15:01:36;4.00;99.90
21115;DHT22;10715;48.546;9.896;2023-04-03T15:04:04;4.00;99.90
21115;DHT22;10715;48.546;9.896;2023-04-03T15:06:30;4.00;99.90
21115;DHT22;10715;48.546;9.896;2023-04-03T15:08:57;4.00;99.90
21115;DHT22;10715;48.546;9.896;2023-04-03T15:11:22;4.00;99.90
21115;DHT22;10715;48.546;9.896;2023-04-03T15:13:48;4.00;99.90
21115;DHT22;10715;48.546;9.896;2023-04-03T15:16:18;4.00;99.90
21115;DHT22;10715;48.546;9.896;2023-04-03T15:18:45;4.00;99.90
21115;DHT22;10715;48.546;9.896;2023-04-03T15:21:11;4.00;99.90
21115;DHT22;10715;48.546;9.896;2023-04-03T15:23:37;3.90;99.90
21115;DHT22;10715;48.546;9.896;2023-04-03T15:26:04;3.90;99.90
21115;DHT22;10715;48.546;9.896;2023-04-03T15:28:35;3.90;99.90
21115;DHT22;10715;48.546;9.896;2023-04-03T15:31:02;3.80;99.90
21115;DHT22;10715;48.546;9.896;2023-04-03T15:33:29;3.80;99.90
21115;DHT22;10715;48.546;9.896;2023-04-03T15:35:54;3.80;99.90
21115;DHT22;10715;48.546;9.896;2023-04-03T15:38:20;3.90;99.90
21115;DHT22;10715;48.546;9.896;2023-04-03T15:40:46;3.90;99.90
21115;DHT22;10715;48.546;9.896;2023-04-03T15:43:15;3.90;99.90
21115;DHT22;10715;48.546;9.896;2023-04-03T15:45:42;3.90;99.90
21115;DHT22;10715;48.546;9.896;2023-04-03T15:48:08;3.90;99.90
21115;DHT22;10715;48.546;9.896;2023-04-03T15:50:35;3.90;99.90
21115;DHT22;10715;48.546;9.896;2023-04-03T15:53:01;3.90;99.90
21115;DHT22;10715;48.546;9.896;2023-04-03T15:55:30;3.90;99.90
21115;DHT22;10715;48.546;9.896;2023-04-03T15:57:56;3.90;99.90
21115;DHT22;10715;48.546;9.896;2023-04-03T16:00:23;3.90;99.90
21115;DHT22;10715;48.546;9.896;2023-04-03T16:02:55;3.90;99.90
21115;DHT22;10715;48.546;9.896;2023-04-03T16:05:23;3.90;99.90
21115;DHT22;10715;48.546;9.896;2023-04-03T16:07:49;3.80;99.90
21115;DHT22;10715;48.546;9.896;2023-04-03T16:10:17;3.80;99.90
21115;DHT22;10715;48.546;9.896;2023-04-03T16:12:44;3.80;99.90
21115;DHT22;10715;48.546;9.896;2023-04-03T16:15:10;3.80;99.90
21115;DHT22;10715;48.546;9.896;2023-04-03T16:17:37;3.70;99.90
21115;DHT22;10715;48.546;9.896;2023-04-03T16:20:04;3.70;99.90
21115;DHT22;10715;48.546;9.896;2023-04-03T16:22:31;3.70;99.90
21115;DHT22;10715;48.546;9.896;2023-04-03T16:24:57;3.70;99.90
21115;DHT22;10715;48.546;9.896;2023-04-03T16:27:23;3.70;99.90
21115;DHT22;10715;48.546;9.896;2023-04-03T16:29:54;3.70;99.90
21115;DHT22;10715;48.546;9.896;2023-04-03T16:32:20;3.70;99.90
21115;DHT22;10715;48.546;9.896;2023-04-03T16:34:46;3.70;99.90
21115;DHT22;10715;48.546;9.896;2023-04-03T16:37:12;3.70;99.90
21115;DHT22;10715;48.546;9.896;2023-04-03T16:39:37;3.80;99.90
21115;DHT22;10715;48.546;9.896;2023-04-03T16:42:03;3.80;99.90
21115;DHT22;10715;48.546;9.896;2023-04-03T16:44:29;3.80;99.90
21115;DHT22;10715;48.546;9.896;2023-04-03T16:46:54;3.80;99.90
21115;DHT22;10715;48.546;9.896;2023-04-03T16:49:20;3.80;99.90
21115;DHT22;10715;48.546;9.896;2023-04-03T16:51:47;3.70;99.90
21115;DHT22;10715;48.546;9.896;2023-04-03T16:54:13;3.70;99.90
21115;DHT22;10715;48.546;9.896;2023-04-03T16:56:39;3.70;99.90
21115;DHT22;10715;48.546;9.896;2023-04-03T16:59:05;3.70;99.90
21115;DHT22;10715;48.546;9.896;2023-04-03T17:01:31;3.70;99.90
21115;DHT22;10715;48.546;9.896;2023-04-03T17:03:57;3.70;99.90
21115;DHT22;10715;48.546;9.896;2023-04-03T17:06:23;3.60;99.90
21115;DHT22;10715;48.546;9.896;2023-04-03T17:08:50;3.60;99.90
21115;DHT22;10715;48.546;9.896;2023-04-03T17:11:17;3.60;99.90
21115;DHT22;10715;48.546;9.896;2023-04-03T17:13:43;3.60;99.90
21115;DHT22;10715;48.546;9.896;2023-04-03T17:16:13;3.60;99.90
21115;DHT22;10715;48.546;9.896;2023-04-03T17:18:40;3.60;99.90
21115;DHT22;10715;48.546;9.896;2023-04-03T17:21:06;3.60;99.90
21115;DHT22;10715;48.546;9.896;2023-04-03T17:23:32;3.60;99.90
21115;DHT22;10715;48.546;9.896;2023-04-03T17:26:01;3.60;99.90
21115;DHT22;10715;48.546;9.896;2023-04-03T17:28:27;3.60;99.90
21115;DHT22;10715;48.546;9.896;2023-04-03T17:30:58;3.60;99.90
21115;DHT22;10715;48.546;9.896;2023-04-03T17:33:25;3.60;99.90
21115;DHT22;10715;48.546;9.896;2023-04-03T17:35:59;3.50;99.90